Accueil
METAR-TAF:

METAR-TAF

Aéroports :

Knox County Regional Airport

Rockland, Maine, États-Unis

latitude: 44-04N, longitude: 069-06W, altitude: 17 m

Observation

Le bulletin a été fait il y a 4 minutes, à 01:56 UTC
Vent 5 kt de direction variable
Température -8°C
Humidité 62%
Pression 1022 hPa
Visibilité: 16.1 km
Ciel clair

METAR: KRKD 110156Z AUTO VRB05KT 10SM CLR M08/M14 A3018 RMK AO2 SLP222 T10781139 FZRANO

Heure: 21:00 (02:00 UTC)

Prévision

Le bulletin a été fait il y a 2 heures et 40 minutes, à 23:20 UTC
Prévision valable du 11 à 00 UTC au 11 à 24 UTC
Vent 3 kt de nord
Visibilité: 10 km
Nuages fragmentés à une hauteur de 25000 ft

TAF: KRKD 102320Z 1100/1124 35003KT P6SM BKN250 AMD LTD TO CLD VIS AND WIND

Observations et prévisions météorologiques de plus de 4000 aéroports (messages METAR et TAF).

Les stations disponibles sont représentées par des disques jaunes et rouges sur la carte.

Passer la souris dessus pour voir le nom de la station.

Cliquer dessus pour voir les observations et prévisions météorologiques.

Pour changer de carte: cliquez sur les boutons verts avec une croix noire pour zoomer, sur le bouton vert avec un tiret pour effectuer un zoom arrière, ou sur les flèches vertes pour les cartes adjacentes.


METAR-TAF: